sensor_id;sensor_type;location;lat;lon;timestamp;pressure;altitude;pressure_sealevel;temperature;humidity
67434;BME280;54305;47.950;6.572;2023-06-19T04:29:47;94160.19;;;16.58;100.00
67434;BME280;54305;47.950;6.572;2023-06-19T04:32:12;94170.31;;;16.54;100.00
67434;BME280;54305;47.950;6.572;2023-06-19T04:34:38;94166.66;;;16.62;100.00
67434;BME280;54305;47.950;6.572;2023-06-19T04:37:03;94176.78;;;16.52;100.00
67434;BME280;54305;47.950;6.572;2023-06-19T04:39:29;94169.06;;;16.44;100.00
67434;BME280;54305;47.950;6.572;2023-06-19T04:41:54;94173.72;;;16.42;100.00
67434;BME280;54305;47.950;6.572;2023-06-19T04:44:19;94181.63;;;16.48;100.00
67434;BME280;54305;47.950;6.572;2023-06-19T04:46:44;94180.81;;;16.54;100.00
67434;BME280;54305;47.950;6.572;2023-06-19T04:49:10;94177.56;;;16.59;100.00
67434;BME280;54305;47.950;6.572;2023-06-19T04:51:35;94189.75;;;16.60;100.00
67434;BME280;54305;47.950;6.572;2023-06-19T04:54:00;94188.94;;;16.66;100.00
67434;BME280;54305;47.950;6.572;2023-06-19T04:56:26;94194.97;;;16.73;100.00
67434;BME280;54305;47.950;6.572;2023-06-19T04:58:51;94190.56;;;16.80;100.00
67434;BME280;54305;47.950;6.572;2023-06-19T05:01:17;94190.13;;;16.83;100.00
67434;BME280;54305;47.950;6.572;2023-06-19T05:03:43;94191.78;;;16.84;100.00
67434;BME280;54305;47.950;6.572;2023-06-19T05:06:09;94188.91;;;16.92;100.00
67434;BME280;54305;47.950;6.572;2023-06-19T05:08:34;94185.28;;;16.99;100.00
67434;BME280;54305;47.950;6.572;2023-06-19T05:10:59;94178.78;;;17.02;100.00
67434;BME280;54305;47.950;6.572;2023-06-19T05:13:25;94169.09;;;17.09;100.00
67434;BME280;54305;47.950;6.572;2023-06-19T05:15:50;94172.94;;;17.13;100.00
67434;BME280;54305;47.950;6.572;2023-06-19T05:18:15;94181.22;;;17.10;100.00
67434;BME280;54305;47.950;6.572;2023-06-19T05:20:41;94172.91;;;17.26;100.00
67434;BME280;54305;47.950;6.572;2023-06-19T05:23:06;94173.09;;;17.31;100.00
67434;BME280;54305;47.950;6.572;2023-06-19T05:25:31;94172.28;;;17.43;100.00
67434;BME280;54305;47.950;6.572;2023-06-19T05:27:57;94178.38;;;17.44;100.00
67434;BME280;54305;47.950;6.572;2023-06-19T05:30:22;94181.19;;;17.49;100.00
67434;BME280;54305;47.950;6.572;2023-06-19T05:32:47;94173.88;;;17.57;100.00
67434;BME280;54305;47.950;6.572;2023-06-19T05:35:12;94174.22;;;17.74;100.00
67434;BME280;54305;47.950;6.572;2023-06-19T05:37:38;94179.44;;;17.87;100.00
67434;BME280;54305;47.950;6.572;2023-06-19T05:40:05;94181.41;;;17.98;100.00
67434;BME280;54305;47.950;6.572;2023-06-19T05:42:30;94175.06;;;18.12;100.00
67434;BME280;54305;47.950;6.572;2023-06-19T05:44:56;94180.13;;;18.20;100.00
67434;BME280;54305;47.950;6.572;2023-06-19T05:47:21;94182.47;;;18.28;100.00
67434;BME280;54305;47.950;6.572;2023-06-19T05:49:49;94184.91;;;18.36;100.00
67434;BME280;54305;47.950;6.572;2023-06-19T05:52:14;94177.50;;;18.51;100.00
67434;BME280;54305;47.950;6.572;2023-06-19T05:54:39;94177.09;;;18.54;100.00
67434;BME280;54305;47.950;6.572;2023-06-19T05:57:05;94172.63;;;18.54;100.00
67434;BME280;54305;47.950;6.572;2023-06-19T05:59:30;94176.81;;;18.62;100.00
67434;BME280;54305;47.950;6.572;2023-06-19T06:01:56;94179.78;;;18.72;100.00
67434;BME280;54305;47.950;6.572;2023-06-19T06:04:21;94181.00;;;18.76;100.00
67434;BME280;54305;47.950;6.572;2023-06-19T06:06:47;94193.16;;;18.77;100.00
67434;BME280;54305;47.950;6.572;2023-06-19T06:09:12;94193.16;;;18.77;100.00
67434;BME280;54305;47.950;6.572;2023-06-19T06:11:38;94193.97;;;18.77;100.00
67434;BME280;54305;47.950;6.572;2023-06-19T06:14:03;94196.97;;;18.81;100.00
67434;BME280;54305;47.950;6.572;2023-06-19T06:16:29;94203.22;;;18.93;100.00
67434;BME280;54305;47.950;6.572;2023-06-19T06:18:54;94199.91;;;18.97;100.00
67434;BME280;54305;47.950;6.572;2023-06-19T06:21:19;94207.25;;;18.95;100.00
67434;BME280;54305;47.950;6.572;2023-06-19T06:23:45;94207.94;;;19.09;100.00
67434;BME280;54305;47.950;6.572;2023-06-19T06:26:12;94210.25;;;18.99;100.00
67434;BME280;54305;47.950;6.572;2023-06-19T06:28:38;94203.28;;;18.80;100.00
67434;BME280;54305;47.950;6.572;2023-06-19T06:31:04;94210.03;;;19.00;100.00
67434;BME280;54305;47.950;6.572;2023-06-19T06:33:29;94199.66;;;19.05;100.00
67434;BME280;54305;47.950;6.572;2023-06-19T06:35:55;94201.44;;;19.36;100.00
67434;BME280;54305;47.950;6.572;2023-06-19T06:38:20;94196.34;;;19.77;100.00
67434;BME280;54305;47.950;6.572;2023-06-19T06:40:45;94212.56;;;19.80;100.00
67434;BME280;54305;47.950;6.572;2023-06-19T06:43:11;94209.06;;;19.86;100.00
67434;BME280;54305;47.950;6.572;2023-06-19T06:45:37;94210.75;;;19.99;100.00
67434;BME280;54305;47.950;6.572;2023-06-19T06:48:07;94214.41;;;20.16;100.00
67434;BME280;54305;47.950;6.572;2023-06-19T06:50:32;94220.53;;;20.35;100.00
67434;BME280;54305;47.950;6.572;2023-06-19T06:52:57;94224.81;;;20.47;100.00
67434;BME280;54305;47.950;6.572;2023-06-19T06:55:23;94221.78;;;20.32;100.00
67434;BME280;54305;47.950;6.572;2023-06-19T06:57:48;94224.72;;;20.24;100.00
67434;BME280;54305;47.950;6.572;2023-06-19T07:00:13;94238.78;;;20.00;100.00
67434;BME280;54305;47.950;6.572;2023-06-19T07:02:39;94239.25;;;19.79;100.00
67434;BME280;54305;47.950;6.572;2023-06-19T07:05:08;94236.19;;;19.75;100.00
67434;BME280;54305;47.950;6.572;2023-06-19T07:07:33;94238.66;;;19.95;100.00
67434;BME280;54305;47.950;6.572;2023-06-19T07:09:58;94235.09;;;19.65;100.00
67434;BME280;54305;47.950;6.572;2023-06-19T07:12:24;94246.91;;;19.62;100.00
67434;BME280;54305;47.950;6.572;2023-06-19T07:14:52;94239.94;;;19.68;100.00
67434;BME280;54305;47.950;6.572;2023-06-19T07:17:18;94231.59;;;19.89;100.00
67434;BME280;54305;47.950;6.572;2023-06-19T07:19:43;94240.19;;;20.02;100.00
67434;BME280;54305;47.950;6.572;2023-06-19T07:22:08;94232.22;;;20.09;100.00
67434;BME280;54305;47.950;6.572;2023-06-19T07:24:33;94240.28;;;20.14;100.00
67434;BME280;54305;47.950;6.572;2023-06-19T07:26:59;94229.72;;;20.14;100.00
67434;BME280;54305;47.950;6.572;2023-06-19T07:29:24;94223.66;;;20.43;100.00
67434;BME280;54305;47.950;6.572;2023-06-19T07:31:50;94230.28;;;20.34;100.00
67434;BME280;54305;47.950;6.572;2023-06-19T07:34:15;94224.00;;;20.47;100.00
67434;BME280;54305;47.950;6.572;2023-06-19T07:36:41;94220.53;;;20.46;100.00
67434;BME280;54305;47.950;6.572;2023-06-19T07:39:07;94227.84;;;20.80;100.00
67434;BME280;54305;47.950;6.572;2023-06-19T07:41:32;94225.53;;;20.54;100.00
67434;BME280;54305;47.950;6.572;2023-06-19T07:43:57;94221.50;;;20.81;100.00
67434;BME280;54305;47.950;6.572;2023-06-19T07:46:23;94227.53;;;20.70;96.72
67434;BME280;54305;47.950;6.572;2023-06-19T07:48:48;94225.88;;;20.87;100.00
67434;BME280;54305;47.950;6.572;2023-06-19T07:51:14;94237.81;;;20.78;100.00
67434;BME280;54305;47.950;6.572;2023-06-19T07:53:39;94232.31;;;20.50;95.76
67434;BME280;54305;47.950;6.572;2023-06-19T07:56:04;94235.94;;;20.01;93.93
67434;BME280;54305;47.950;6.572;2023-06-19T07:58:30;94228.47;;;20.46;100.00
67434;BME280;54305;47.950;6.572;2023-06-19T08:00:55;94230.78;;;20.72;96.05
67434;BME280;54305;47.950;6.572;2023-06-19T08:03:20;94232.28;;;20.98;98.87
67434;BME280;54305;47.950;6.572;2023-06-19T08:05:46;94226.56;;;21.12;98.01
67434;BME280;54305;47.950;6.572;2023-06-19T08:08:12;94230.13;;;21.06;92.79
67434;BME280;54305;47.950;6.572;2023-06-19T08:10:38;94229.66;;;20.50;94.63
67434;BME280;54305;47.950;6.572;2023-06-19T08:13:03;94238.91;;;20.59;90.08
67434;BME280;54305;47.950;6.572;2023-06-19T08:15:28;94227.50;;;20.88;87.72
67434;BME280;54305;47.950;6.572;2023-06-19T08:17:53;94227.50;;;20.88;92.82
67434;BME280;54305;47.950;6.572;2023-06-19T08:20:19;94227.22;;;20.96;90.53
67434;BME280;54305;47.950;6.572;2023-06-19T08:22:45;94213.97;;;20.96;83.21
67434;BME280;54305;47.950;6.572;2023-06-19T08:25:10;94221.38;;;21.17;84.29
67434;BME280;54305;47.950;6.572;2023-06-19T08:27:35;94218.34;;;21.02;82.05
67434;BME280;54305;47.950;6.572;2023-06-19T08:30:01;94228.06;;;21.31;85.50
67434;BME280;54305;47.950;6.572;2023-06-19T08:32:26;94236.38;;;21.46;81.61
67434;BME280;54305;47.950;6.572;2023-06-19T08:34:52;94241.84;;;21.74;86.60
67434;BME280;54305;47.950;6.572;2023-06-19T08:37:17;94232.72;;;21.93;86.17
67434;BME280;54305;47.950;6.572;2023-06-19T08:39:43;94232.16;;;21.04;78.00
67434;BME280;54305;47.950;6.572;2023-06-19T08:42:09;94232.00;;;21.40;82.94
67434;BME280;54305;47.950;6.572;2023-06-19T08:44:37;94231.88;;;21.35;76.90
67434;BME280;54305;47.950;6.572;2023-06-19T08:47:02;94234.97;;;21.32;85.95
67434;BME280;54305;47.950;6.572;2023-06-19T08:49:34;94226.59;;;21.47;89.09
67434;BME280;54305;47.950;6.572;2023-06-19T08:52:01;94226.72;;;21.40;85.93
67434;BME280;54305;47.950;6.572;2023-06-19T08:54:26;94227.06;;;21.55;82.95
67434;BME280;54305;47.950;6.572;2023-06-19T08:56:51;94220.03;;;21.95;78.41
67434;BME280;54305;47.950;6.572;2023-06-19T08:59:19;94223.03;;;21.64;81.86
67434;BME280;54305;47.950;6.572;2023-06-19T09:01:48;94220.97;;;21.89;80.34
67434;BME280;54305;47.950;6.572;2023-06-19T09:04:17;94213.78;;;21.32;82.15
67434;BME280;54305;47.950;6.572;2023-06-19T09:06:55;94223.72;;;21.71;82.60
67434;BME280;54305;47.950;6.572;2023-06-19T09:09:22;94218.88;;;21.68;81.00
67434;BME280;54305;47.950;6.572;2023-06-19T09:12:04;94214.75;;;21.49;80.66
67434;BME280;54305;47.950;6.572;2023-06-19T09:16:58;94224.88;;;21.98;75.76
67434;BME280;54305;47.950;6.572;2023-06-19T09:19:24;94226.50;;;21.53;75.13
67434;BME280;54305;47.950;6.572;2023-06-19T09:21:49;94219.09;;;21.55;76.03
67434;BME280;54305;47.950;6.572;2023-06-19T09:24:14;94222.09;;;21.47;79.68
67434;BME280;54305;47.950;6.572;2023-06-19T09:26:40;94223.38;;;21.68;80.57
67434;BME280;54305;47.950;6.572;2023-06-19T09:29:12;94220.69;;;21.33;80.19
67434;BME280;54305;47.950;6.572;2023-06-19T09:31:37;94214.47;;;22.08;79.69
67434;BME280;54305;47.950;6.572;2023-06-19T09:34:04;94219.13;;;22.01;79.14
67434;BME280;54305;47.950;6.572;2023-06-19T09:36:30;94219.59;;;22.49;79.80
67434;BME280;54305;47.950;6.572;2023-06-19T09:38:56;94219.44;;;22.84;76.34
67434;BME280;54305;47.950;6.572;2023-06-19T09:41:22;94218.75;;;22.60;73.54
67434;BME280;54305;47.950;6.572;2023-06-19T09:43:48;94213.72;;;22.75;77.17
67434;BME280;54305;47.950;6.572;2023-06-19T09:46:15;94211.38;;;22.39;78.75
67434;BME280;54305;47.950;6.572;2023-06-19T09:48:42;94215.41;;;22.02;78.39
67434;BME280;54305;47.950;6.572;2023-06-19T09:53:33;94209.91;;;21.69;85.14
67434;BME280;54305;47.950;6.572;2023-06-19T09:55:59;94219.00;;;21.96;84.81
67434;BME280;54305;47.950;6.572;2023-06-19T09:58:24;94216.38;;;21.96;87.69
67434;BME280;54305;47.950;6.572;2023-06-19T10:00:50;94214.38;;;22.03;88.06
67434;BME280;54305;47.950;6.572;2023-06-19T10:03:15;94217.94;;;22.60;85.34
67434;BME280;54305;47.950;6.572;2023-06-19T10:05:42;94214.47;;;22.87;80.98
67434;BME280;54305;47.950;6.572;2023-06-19T10:08:07;94221.00;;;23.57;82.53
67434;BME280;54305;47.950;6.572;2023-06-19T10:10:33;94222.13;;;23.28;78.12
67434;BME280;54305;47.950;6.572;2023-06-19T10:12:59;94219.22;;;23.46;78.24
67434;BME280;54305;47.950;6.572;2023-06-19T10:15:28;94219.16;;;23.25;78.81
67434;BME280;54305;47.950;6.572;2023-06-19T10:20:23;94218.59;;;24.10;75.08
67434;BME280;54305;47.950;6.572;2023-06-19T10:22:52;94211.72;;;24.57;71.79
67434;BME280;54305;47.950;6.572;2023-06-19T10:25:21;94215.19;;;24.79;71.50
67434;BME280;54305;47.950;6.572;2023-06-19T10:27:47;94221.06;;;24.17;70.30
67434;BME280;54305;47.950;6.572;2023-06-19T10:30:19;94212.63;;;23.32;80.27
67434;BME280;54305;47.950;6.572;2023-06-19T10:32:45;94205.81;;;23.74;82.09
67434;BME280;54305;47.950;6.572;2023-06-19T10:35:11;94198.22;;;23.99;77.98
67434;BME280;54305;47.950;6.572;2023-06-19T10:37:37;94201.09;;;24.14;74.39
67434;BME280;54305;47.950;6.572;2023-06-19T10:40:02;94193.06;;;25.05;71.85
67434;BME280;54305;47.950;6.572;2023-06-19T10:42:27;94186.91;;;26.04;63.05
67434;BME280;54305;47.950;6.572;2023-06-19T10:44:58;94190.31;;;26.41;57.97
67434;BME280;54305;47.950;6.572;2023-06-19T10:47:24;94185.75;;;25.90;60.10
67434;BME280;54305;47.950;6.572;2023-06-19T10:49:49;94177.75;;;25.22;59.26
67434;BME280;54305;47.950;6.572;2023-06-19T10:52:14;94185.09;;;25.68;63.75
67434;BME280;54305;47.950;6.572;2023-06-19T10:54:40;94176.72;;;26.48;58.22
67434;BME280;54305;47.950;6.572;2023-06-19T10:57:06;94175.91;;;25.54;64.44
67434;BME280;54305;47.950;6.572;2023-06-19T10:59:31;94167.00;;;25.80;57.81
67434;BME280;54305;47.950;6.572;2023-06-19T11:01:58;94163.63;;;26.51;55.60
67434;BME280;54305;47.950;6.572;2023-06-19T11:04:23;94167.97;;;26.62;54.53
67434;BME280;54305;47.950;6.572;2023-06-19T11:06:50;94171.59;;;26.41;50.57
67434;BME280;54305;47.950;6.572;2023-06-19T11:09:15;94169.03;;;26.56;49.46
67434;BME280;54305;47.950;6.572;2023-06-19T11:11:45;94165.31;;;25.64;48.39
67434;BME280;54305;47.950;6.572;2023-06-19T11:14:11;94167.56;;;24.88;50.55
67434;BME280;54305;47.950;6.572;2023-06-19T11:16:44;94167.94;;;24.70;51.49
67434;BME280;54305;47.950;6.572;2023-06-19T11:19:14;94169.91;;;25.11;55.96
67434;BME280;54305;47.950;6.572;2023-06-19T11:21:40;94162.13;;;25.04;48.65
67434;BME280;54305;47.950;6.572;2023-06-19T11:24:06;94164.22;;;24.97;49.61
67434;BME280;54305;47.950;6.572;2023-06-19T11:26:37;94154.72;;;24.32;51.99
67434;BME280;54305;47.950;6.572;2023-06-19T11:29:12;94156.88;;;24.83;53.20
67434;BME280;54305;47.950;6.572;2023-06-19T11:31:38;94159.91;;;25.23;56.74
67434;BME280;54305;47.950;6.572;2023-06-19T11:34:03;94164.63;;;25.84;51.05
67434;BME280;54305;47.950;6.572;2023-06-19T11:36:29;94171.41;;;26.01;47.74
67434;BME280;54305;47.950;6.572;2023-06-19T11:38:54;94170.94;;;26.14;48.95
67434;BME280;54305;47.950;6.572;2023-06-19T11:41:26;94168.72;;;25.96;48.79
67434;BME280;54305;47.950;6.572;2023-06-19T11:43:57;94160.31;;;25.78;48.19
67434;BME280;54305;47.950;6.572;2023-06-19T11:46:27;94162.34;;;25.61;47.48
67434;BME280;54305;47.950;6.572;2023-06-19T11:48:53;94152.03;;;25.74;48.23
67434;BME280;54305;47.950;6.572;2023-06-19T11:51:18;94157.34;;;25.69;46.46
67434;BME280;54305;47.950;6.572;2023-06-19T11:53:43;94155.06;;;25.51;48.78
67434;BME280;54305;47.950;6.572;2023-06-19T11:56:08;94154.06;;;25.62;46.14
67434;BME280;54305;47.950;6.572;2023-06-19T11:58:34;94147.09;;;25.56;46.38
67434;BME280;54305;47.950;6.572;2023-06-19T12:00:59;94149.56;;;26.09;45.92
67434;BME280;54305;47.950;6.572;2023-06-19T12:03:24;94148.50;;;25.64;47.60
67434;BME280;54305;47.950;6.572;2023-06-19T12:05:50;94140.03;;;26.28;53.20
67434;BME280;54305;47.950;6.572;2023-06-19T12:08:15;94143.91;;;26.62;47.23
67434;BME280;54305;47.950;6.572;2023-06-19T12:10:41;94149.69;;;26.44;45.87
67434;BME280;54305;47.950;6.572;2023-06-19T12:13:06;94153.31;;;26.08;45.83
67434;BME280;54305;47.950;6.572;2023-06-19T12:15:32;94151.63;;;25.56;47.54
67434;BME280;54305;47.950;6.572;2023-06-19T12:17:57;94146.84;;;25.94;44.79
67434;BME280;54305;47.950;6.572;2023-06-19T12:20:23;94141.56;;;26.09;47.14
67434;BME280;54305;47.950;6.572;2023-06-19T12:22:48;94123.41;;;25.65;45.88
67434;BME280;54305;47.950;6.572;2023-06-19T12:25:14;94119.16;;;26.15;48.06
67434;BME280;54305;47.950;6.572;2023-06-19T12:27:39;94129.78;;;26.00;43.73
67434;BME280;54305;47.950;6.572;2023-06-19T12:30:05;94126.75;;;25.40;43.05
67434;BME280;54305;47.950;6.572;2023-06-19T12:32:30;94121.16;;;25.10;43.81
67434;BME280;54305;47.950;6.572;2023-06-19T12:34:56;94117.69;;;25.41;43.40
67434;BME280;54305;47.950;6.572;2023-06-19T12:37:21;94114.69;;;25.79;43.71
67434;BME280;54305;47.950;6.572;2023-06-19T12:39:47;94111.22;;;26.35;43.34
67434;BME280;54305;47.950;6.572;2023-06-19T12:42:12;94119.06;;;25.95;40.61
67434;BME280;54305;47.950;6.572;2023-06-19T12:44:38;94118.00;;;25.18;39.32
67434;BME280;54305;47.950;6.572;2023-06-19T12:47:03;94119.31;;;25.16;40.41
67434;BME280;54305;47.950;6.572;2023-06-19T12:49:30;94115.97;;;24.67;40.63
67434;BME280;54305;47.950;6.572;2023-06-19T12:51:55;94115.38;;;24.92;43.21
67434;BME280;54305;47.950;6.572;2023-06-19T12:54:20;94111.47;;;24.46;42.11
67434;BME280;54305;47.950;6.572;2023-06-19T12:56:45;94123.00;;;24.78;42.09
67434;BME280;54305;47.950;6.572;2023-06-19T12:59:11;94103.81;;;24.76;41.86
67434;BME280;54305;47.950;6.572;2023-06-19T13:01:36;94111.25;;;24.26;43.10
67434;BME280;54305;47.950;6.572;2023-06-19T13:04:01;94125.41;;;24.53;45.09
67434;BME280;54305;47.950;6.572;2023-06-19T13:06:26;94109.59;;;24.20;42.19
67434;BME280;54305;47.950;6.572;2023-06-19T13:08:52;94115.25;;;24.50;41.48
67434;BME280;54305;47.950;6.572;2023-06-19T13:11:17;94109.75;;;25.20;42.51
67434;BME280;54305;47.950;6.572;2023-06-19T13:13:42;94102.13;;;26.21;41.90
67434;BME280;54305;47.950;6.572;2023-06-19T13:16:07;94104.94;;;25.53;37.74
67434;BME280;54305;47.950;6.572;2023-06-19T13:18:34;94113.28;;;25.25;39.53
67434;BME280;54305;47.950;6.572;2023-06-19T13:21:00;94115.78;;;25.05;39.30
67434;BME280;54305;47.950;6.572;2023-06-19T13:23:25;94113.16;;;25.88;40.30
67434;BME280;54305;47.950;6.572;2023-06-19T13:25:50;94110.81;;;25.97;39.21
67434;BME280;54305;47.950;6.572;2023-06-19T13:28:15;94105.19;;;25.93;39.92
67434;BME280;54305;47.950;6.572;2023-06-19T13:30:41;94101.59;;;26.34;38.46
67434;BME280;54305;47.950;6.572;2023-06-19T13:33:06;94093.69;;;25.41;39.01
67434;BME280;54305;47.950;6.572;2023-06-19T13:35:31;94094.44;;;25.83;41.15
67434;BME280;54305;47.950;6.572;2023-06-19T13:37:57;94093.53;;;26.19;39.62
67434;BME280;54305;47.950;6.572;2023-06-19T13:40:22;94092.47;;;26.20;40.02
67434;BME280;54305;47.950;6.572;2023-06-19T13:42:47;94089.81;;;26.20;39.94
67434;BME280;54305;47.950;6.572;2023-06-19T13:45:13;94072.84;;;26.56;38.54
67434;BME280;54305;47.950;6.572;2023-06-19T13:47:38;94086.22;;;26.86;38.84
67434;BME280;54305;47.950;6.572;2023-06-19T13:50:03;94076.00;;;27.68;39.77
67434;BME280;54305;47.950;6.572;2023-06-19T13:52:29;94081.31;;;27.93;35.97
67434;BME280;54305;47.950;6.572;2023-06-19T13:54:54;94083.03;;;27.09;37.48
67434;BME280;54305;47.950;6.572;2023-06-19T13:57:19;94074.19;;;26.74;38.19
67434;BME280;54305;47.950;6.572;2023-06-19T13:59:45;94071.00;;;26.92;38.73
67434;BME280;54305;47.950;6.572;2023-06-19T14:02:10;94061.09;;;27.27;38.88
67434;BME280;54305;47.950;6.572;2023-06-19T14:04:35;94063.75;;;27.27;37.34
67434;BME280;54305;47.950;6.572;2023-06-19T14:07:01;94060.78;;;27.49;37.38
67434;BME280;54305;47.950;6.572;2023-06-19T14:09:26;94063.75;;;26.77;37.50
67434;BME280;54305;47.950;6.572;2023-06-19T14:11:51;94052.72;;;26.19;37.49
67434;BME280;54305;47.950;6.572;2023-06-19T14:14:16;94055.50;;;27.19;38.58
67434;BME280;54305;47.950;6.572;2023-06-19T14:16:42;94052.00;;;27.13;39.51
67434;BME280;54305;47.950;6.572;2023-06-19T14:19:07;94041.28;;;27.43;40.29
67434;BME280;54305;47.950;6.572;2023-06-19T14:21:32;94049.88;;;27.05;37.77
67434;BME280;54305;47.950;6.572;2023-06-19T14:23:57;94038.50;;;27.78;37.86
67434;BME280;54305;47.950;6.572;2023-06-19T14:26:23;94041.19;;;28.37;39.54
67434;BME280;54305;47.950;6.572;2023-06-19T14:28:48;94037.44;;;27.79;36.78
67434;BME280;54305;47.950;6.572;2023-06-19T14:31:13;94028.47;;;27.35;39.05
67434;BME280;54305;47.950;6.572;2023-06-19T14:33:38;94030.00;;;27.56;38.52
67434;BME280;54305;47.950;6.572;2023-06-19T14:36:04;94037.44;;;27.74;37.85
67434;BME280;54305;47.950;6.572;2023-06-19T14:38:29;94030.56;;;27.48;37.39
67434;BME280;54305;47.950;6.572;2023-06-19T14:40:59;94026.13;;;27.97;39.41
67434;BME280;54305;47.950;6.572;2023-06-19T14:43:24;94024.09;;;28.71;38.36
67434;BME280;54305;47.950;6.572;2023-06-19T14:45:49;94020.50;;;29.19;37.60
67434;BME280;54305;47.950;6.572;2023-06-19T14:48:15;94012.25;;;29.39;36.76
67434;BME280;54305;47.950;6.572;2023-06-19T14:50:40;94011.97;;;28.45;35.08
67434;BME280;54305;47.950;6.572;2023-06-19T14:53:06;94010.69;;;29.10;37.76
67434;BME280;54305;47.950;6.572;2023-06-19T14:55:31;94018.19;;;29.36;36.91
67434;BME280;54305;47.950;6.572;2023-06-19T14:57:56;94023.19;;;28.47;34.93
67434;BME280;54305;47.950;6.572;2023-06-19T15:00:22;94021.91;;;28.35;36.87
67434;BME280;54305;47.950;6.572;2023-06-19T15:02:48;94025.53;;;28.97;39.94
67434;BME280;54305;47.950;6.572;2023-06-19T15:05:14;94014.72;;;28.30;34.23
67434;BME280;54305;47.950;6.572;2023-06-19T15:07:39;94012.19;;;28.05;33.62
67434;BME280;54305;47.950;6.572;2023-06-19T15:10:04;94012.28;;;28.39;35.47
67434;BME280;54305;47.950;6.572;2023-06-19T15:12:30;94005.09;;;29.01;37.50
67434;BME280;54305;47.950;6.572;2023-06-19T15:14:57;94004.59;;;28.17;33.36
67434;BME280;54305;47.950;6.572;2023-06-19T15:17:22;94004.19;;;28.00;34.16
67434;BME280;54305;47.950;6.572;2023-06-19T15:19:47;94001.28;;;28.35;34.95
67434;BME280;54305;47.950;6.572;2023-06-19T15:22:13;94008.06;;;28.23;34.34
67434;BME280;54305;47.950;6.572;2023-06-19T15:24:38;93998.63;;;28.30;35.84
67434;BME280;54305;47.950;6.572;2023-06-19T15:27:03;93999.28;;;28.61;36.79
67434;BME280;54305;47.950;6.572;2023-06-19T15:29:28;93994.13;;;28.64;33.07
67434;BME280;54305;47.950;6.572;2023-06-19T15:31:54;93993.69;;;28.52;34.27
67434;BME280;54305;47.950;6.572;2023-06-19T15:34:19;93993.88;;;28.17;35.86
67434;BME280;54305;47.950;6.572;2023-06-19T15:36:44;93987.47;;;28.13;34.71
67434;BME280;54305;47.950;6.572;2023-06-19T15:41:45;93984.47;;;29.02;34.94
67434;BME280;54305;47.950;6.572;2023-06-19T15:44:10;93988.34;;;28.47;34.51
67434;BME280;54305;47.950;6.572;2023-06-19T15:51:46;93985.13;;;28.02;36.11
67434;BME280;54305;47.950;6.572;2023-06-19T15:54:11;93981.94;;;28.00;36.42
67434;BME280;54305;47.950;6.572;2023-06-19T15:56:37;93977.03;;;28.17;34.65
67434;BME280;54305;47.950;6.572;2023-06-19T15:59:03;93978.19;;;28.01;37.49
67434;BME280;54305;47.950;6.572;2023-06-19T16:01:28;93973.00;;;28.14;36.34
67434;BME280;54305;47.950;6.572;2023-06-19T16:03:53;93971.00;;;27.96;37.33
67434;BME280;54305;47.950;6.572;2023-06-19T16:06:18;93971.84;;;28.30;36.03
67434;BME280;54305;47.950;6.572;2023-06-19T16:08:44;93967.66;;;28.58;35.21
67434;BME280;54305;47.950;6.572;2023-06-19T16:11:09;93968.53;;;28.48;36.46
67434;BME280;54305;47.950;6.572;2023-06-19T16:13:35;93958.22;;;28.65;35.14
67434;BME280;54305;47.950;6.572;2023-06-19T16:16:00;93964.06;;;27.85;35.66
67434;BME280;54305;47.950;6.572;2023-06-19T16:18:25;93953.72;;;28.17;36.77
67434;BME280;54305;47.950;6.572;2023-06-19T16:20:51;93952.47;;;28.38;36.81
67434;BME280;54305;47.950;6.572;2023-06-19T16:23:16;93947.41;;;28.75;34.75
67434;BME280;54305;47.950;6.572;2023-06-19T16:25:41;93942.91;;;28.99;35.49
67434;BME280;54305;47.950;6.572;2023-06-19T16:28:07;93932.13;;;29.56;35.20
67434;BME280;54305;47.950;6.572;2023-06-19T16:30:33;93918.63;;;29.61;34.11
67434;BME280;54305;47.950;6.572;2023-06-19T16:32:58;93922.41;;;29.79;35.42
67434;BME280;54305;47.950;6.572;2023-06-19T16:35:24;93923.97;;;30.03;34.70
67434;BME280;54305;47.950;6.572;2023-06-19T16:37:50;93926.81;;;29.93;32.83
67434;BME280;54305;47.950;6.572;2023-06-19T16:40:18;93924.19;;;29.88;34.15
67434;BME280;54305;47.950;6.572;2023-06-19T16:42:43;93919.38;;;29.85;34.53
67434;BME280;54305;47.950;6.572;2023-06-19T16:45:09;93918.50;;;29.24;34.56
67434;BME280;54305;47.950;6.572;2023-06-19T16:47:34;93920.00;;;29.35;33.59
67434;BME280;54305;47.950;6.572;2023-06-19T16:50:01;93914.81;;;28.92;37.35
67434;BME280;54305;47.950;6.572;2023-06-19T16:52:26;93922.59;;;28.26;35.27
67434;BME280;54305;47.950;6.572;2023-06-19T16:54:52;93924.56;;;28.11;37.00
67434;BME280;54305;47.950;6.572;2023-06-19T16:57:17;93925.69;;;28.48;37.07
67434;BME280;54305;47.950;6.572;2023-06-19T16:59:42;93930.94;;;28.58;37.07
67434;BME280;54305;47.950;6.572;2023-06-19T17:02:08;93935.03;;;28.07;37.49
67434;BME280;54305;47.950;6.572;2023-06-19T17:04:33;93931.44;;;27.78;39.89
67434;BME280;54305;47.950;6.572;2023-06-19T17:06:58;93936.88;;;27.63;40.96
67434;BME280;54305;47.950;6.572;2023-06-19T17:09:24;93937.03;;;26.98;43.94
67434;BME280;54305;47.950;6.572;2023-06-19T17:11:49;93931.09;;;27.31;44.54
67434;BME280;54305;47.950;6.572;2023-06-19T17:14:16;93938.53;;;27.49;40.89
67434;BME280;54305;47.950;6.572;2023-06-19T17:16:42;93934.66;;;27.75;43.13
67434;BME280;54305;47.950;6.572;2023-06-19T17:19:07;93925.56;;;27.76;42.58
67434;BME280;54305;47.950;6.572;2023-06-19T17:21:33;93927.44;;;27.76;40.75
67434;BME280;54305;47.950;6.572;2023-06-19T17:23:59;93927.34;;;27.42;44.92
67434;BME280;54305;47.950;6.572;2023-06-19T17:26:24;93930.53;;;27.39;45.12
67434;BME280;54305;47.950;6.572;2023-06-19T17:28:50;93923.66;;;27.13;44.79
67434;BME280;54305;47.950;6.572;2023-06-19T17:31:15;93925.72;;;27.41;44.40
67434;BME280;54305;47.950;6.572;2023-06-19T17:33:47;93930.81;;;27.38;43.35